Time;durP1;ratioP1;P1;durP2;ratioP2;P2;SDS_P1;SDS_P2;PMS_P1;PMS_P2;Temp;Humidity;BMP_temperature;BMP_pressure;BME280_temperature;BME280_humidity;BME280_pressure;Samples;Min_cycle;Max_cycle;Signal;HPM_P1;HPM_P2
2021/01/19 00:00:31;;;;;;;;;;;;;;;1.50;100.00;100772.19;5115437;28;19932;-75
2021/01/19 00:02:57;;;;;;;;;;;;;;;1.49;100.00;100767.75;5115550;28;19923;-75
2021/01/19 00:05:23;;;;;;;;;;;;;;;1.49;100.00;100774.94;5115204;28;19982;-75
2021/01/19 00:07:49;;;;;;;;;;;;;;;1.48;100.00;100765.16;5113861;28;20393;-75
2021/01/19 00:10:16;;;;;;;;;;;;;;;1.49;100.00;100773.13;5115274;28;19928;-75
2021/01/19 00:12:42;;;;;;;;;;;;;;;1.48;100.00;100768.72;5115336;27;19924;-74
2021/01/19 00:15:08;;;;;;;;;;;;;;;1.48;100.00;100759.81;5115052;28;19923;-75
2021/01/19 00:17:34;;;;;;;;;;;;;;;1.49;100.00;100761.56;5114914;28;19981;-75
2021/01/19 00:20:01;;;;;;;;;;;;;;;1.48;100.00;100760.69;5115280;28;19928;-75
2021/01/19 00:22:26;;;;;;;;;;;;;;;1.50;100.00;100761.47;5115024;28;20038;-75
2021/01/19 00:24:52;;;;;;;;;;;;;;;1.50;100.00;100756.13;5114740;28;20277;-75
2021/01/19 00:27:18;;;;;;;;;;;;;;;1.51;100.00;100754.34;5114882;28;19924;-75
2021/01/19 00:29:44;;;;;;;;;;;;;;;1.51;100.00;100746.31;5114949;28;20393;-75
2021/01/19 00:32:09;;;;;;;;;;;;;;;1.50;100.00;100753.44;5114524;28;19943;-75
2021/01/19 00:34:35;;;;;;;;;;;;;;;1.52;100.00;100755.19;5114710;28;19973;-75
2021/01/19 00:37:02;;;;;;;;;;;;;;;1.52;100.00;100752.53;5113345;28;20385;-75
2021/01/19 00:39:28;;;;;;;;;;;;;;;1.50;100.00;100755.28;5114529;28;19971;-75
2021/01/19 00:41:53;;;;;;;;;;;;;;;1.53;100.00;100754.28;5114745;28;20285;-75
2021/01/19 00:44:19;;;;;;;;;;;;;;;1.55;100.00;100752.38;5113153;28;19973;-75
2021/01/19 00:46:45;;;;;;;;;;;;;;;1.54;100.00;100756.00;5114477;28;19938;-75
2021/01/19 00:49:11;;;;;;;;;;;;;;;1.54;100.00;100753.31;5114534;28;20034;-75
2021/01/19 00:51:37;;;;;;;;;;;;;;;1.54;100.00;100745.28;5114567;28;19923;-74
2021/01/19 00:54:05;;;;;;;;;;;;;;;1.60;100.00;100753.06;5114487;28;20444;-76
2021/01/19 00:56:38;;;;;;;;;;;;;;;1.60;100.00;100761.94;5113583;28;20323;-75
2021/01/19 00:59:04;;;;;;;;;;;;;;;1.58;100.00;100755.81;5112521;28;19923;-75
2021/01/19 01:01:30;;;;;;;;;;;;;;;1.60;100.00;100761.94;5114217;28;20303;-75
2021/01/19 01:03:57;;;;;;;;;;;;;;;1.59;100.00;100752.19;5113873;28;19962;-75
2021/01/19 01:06:22;;;;;;;;;;;;;;;1.57;100.00;100756.72;5114048;28;20010;-75
2021/01/19 01:08:48;;;;;;;;;;;;;;;1.58;100.00;100757.63;5114231;28;19935;-75
2021/01/19 01:11:16;;;;;;;;;;;;;;;1.57;100.00;100753.19;5114250;28;19966;-75
2021/01/19 01:13:41;;;;;;;;;;;;;;;1.59;100.00;100757.56;5114178;28;19954;-75
2021/01/19 01:16:07;;;;;;;;;;;;;;;1.59;100.00;100752.19;5113880;28;19978;-75
2021/01/19 01:18:33;;;;;;;;;;;;;;;1.60;100.00;100751.25;5113949;28;19924;-75
2021/01/19 01:20:59;;;;;;;;;;;;;;;1.60;100.00;100745.88;5113798;28;19931;-75
2021/01/19 01:23:25;;;;;;;;;;;;;;;1.62;100.00;100748.53;5113865;28;19928;-75
2021/01/19 01:25:50;;;;;;;;;;;;;;;1.61;100.00;100746.78;5113633;28;19935;-75
2021/01/19 01:28:17;;;;;;;;;;;;;;;1.59;100.00;100743.28;5114157;28;20384;-75
2021/01/19 01:30:43;;;;;;;;;;;;;;;1.58;100.00;100741.56;5113772;28;19958;-74
2021/01/19 01:33:09;;;;;;;;;;;;;;;1.57;100.00;100746.03;5113731;28;19924;-75
2021/01/19 01:35:34;;;;;;;;;;;;;;;1.59;100.00;100743.28;5113251;28;19943;-75
2021/01/19 01:38:00;;;;;;;;;;;;;;;1.57;100.00;100745.16;5113546;28;19931;-74
2021/01/19 01:40:27;;;;;;;;;;;;;;;1.58;100.00;100746.91;5113611;28;19953;-75
2021/01/19 01:42:53;;;;;;;;;;;;;;;1.55;100.00;100731.88;5113540;28;20365;-75
2021/01/19 01:45:21;;;;;;;;;;;;;;;1.54;100.00;100729.22;5113460;28;19963;-75
2021/01/19 01:47:48;;;;;;;;;;;;;;;1.52;100.00;100736.47;5113295;28;19924;-75
2021/01/19 01:50:15;;;;;;;;;;;;;;;1.52;100.00;100733.78;5112217;28;19924;-75
2021/01/19 01:52:40;;;;;;;;;;;;;;;1.50;100.00;100726.69;5113418;28;19963;-76
2021/01/19 01:55:07;;;;;;;;;;;;;;;1.50;100.00;100729.38;5112963;28;20448;-75
2021/01/19 01:57:33;;;;;;;;;;;;;;;1.49;100.00;100727.63;5113036;28;19969;-75
2021/01/19 02:00:00;;;;;;;;;;;;;;;1.50;100.00;100724.03;5113253;28;20015;-75
2021/01/19 02:02:26;;;;;;;;;;;;;;;1.51;100.00;100714.22;5111775;28;20255;-75
2021/01/19 02:04:52;;;;;;;;;;;;;;;1.49;100.00;100714.25;5112989;28;19971;-74
2021/01/19 02:07:23;;;;;;;;;;;;;;;1.48;100.00;100715.22;5112836;28;19923;-75
2021/01/19 02:09:55;;;;;;;;;;;;;;;1.48;100.00;100704.50;5112614;28;20064;-75
2021/01/19 02:12:24;;;;;;;;;;;;;;;1.47;100.00;100710.78;5112957;28;20460;-75
2021/01/19 02:14:54;;;;;;;;;;;;;;;1.47;100.00;100704.56;5112832;28;19923;-75
2021/01/19 02:17:24;;;;;;;;;;;;;;;1.48;100.00;100709.84;5112655;28;20307;-75
2021/01/19 02:20:11;;;;;;;;;;;;;;;1.48;100.00;100717.00;5112892;28;19978;-75
2021/01/19 02:22:58;;;;;;;;;;;;;;;1.46;100.00;100716.22;5112395;28;19924;-75
2021/01/19 02:25:31;;;;;;;;;;;;;;;1.48;100.00;100701.84;5112757;28;20015;-75
2021/01/19 02:28:11;;;;;;;;;;;;;;;1.50;100.00;100699.09;5112661;28;19963;-75
2021/01/19 02:30:55;;;;;;;;;;;;;;;1.49;100.00;100708.03;5107584;28;20368;-75
2021/01/19 02:33:32;;;;;;;;;;;;;;;1.50;100.00;100701.75;5112528;28;20447;-75
2021/01/19 02:36:02;;;;;;;;;;;;;;;1.49;100.00;100700.88;5112362;28;19985;-74
2021/01/19 02:38:33;;;;;;;;;;;;;;;1.49;100.00;100703.53;5112329;28;20014;-74
2021/01/19 02:41:00;;;;;;;;;;;;;;;1.50;100.00;100704.44;5112476;28;19931;-74
2021/01/19 02:43:26;;;;;;;;;;;;;;;1.52;100.00;100707.91;5112342;28;19955;-75
2021/01/19 02:45:53;;;;;;;;;;;;;;;1.53;100.00;100708.78;5111975;28;19966;-74
2021/01/19 02:48:19;;;;;;;;;;;;;;;1.52;100.00;100707.03;5112353;28;19966;-75
2021/01/19 02:50:45;;;;;;;;;;;;;;;1.50;100.00;100707.97;5112163;28;20031;-74
2021/01/19 02:53:12;;;;;;;;;;;;;;;1.52;100.00;100707.91;5111071;28;19931;-74
2021/01/19 02:55:38;;;;;;;;;;;;;;;1.52;100.00;100704.38;5111721;28;19978;-74
2021/01/19 02:58:05;;;;;;;;;;;;;;;1.52;100.00;100699.88;5112229;28;19946;-74
2021/01/19 03:00:40;;;;;;;;;;;;;;;1.50;100.00;100697.25;5112146;28;20405;-74
2021/01/19 03:03:08;;;;;;;;;;;;;;;1.52;100.00;100699.00;5112218;28;20415;-74
2021/01/19 03:05:34;;;;;;;;;;;;;;;1.50;100.00;100697.25;5111649;28;19951;-74
2021/01/19 03:08:04;;;;;;;;;;;;;;;1.50;100.00;100704.44;5112318;28;19930;-74
2021/01/19 03:10:30;;;;;;;;;;;;;;;1.48;100.00;100699.16;5112054;28;20337;-74
2021/01/19 03:12:56;;;;;;;;;;;;;;;1.50;100.00;100694.59;5112193;28;20012;-75
2021/01/19 03:15:22;;;;;;;;;;;;;;;1.50;100.00;100696.41;5111861;28;19939;-75
2021/01/19 03:17:48;;;;;;;;;;;;;;;1.49;100.00;100690.16;5111649;28;19924;-75
2021/01/19 03:20:14;;;;;;;;;;;;;;;1.48;100.00;100680.44;5111120;28;19923;-74
2021/01/19 03:22:40;;;;;;;;;;;;;;;1.47;100.00;100684.03;5110432;28;20309;-74
2021/01/19 03:25:07;;;;;;;;;;;;;;;1.47;100.00;100680.47;5111651;28;19924;-75
2021/01/19 03:27:33;;;;;;;;;;;;;;;1.46;100.00;100684.09;5111542;28;20010;-75
2021/01/19 03:29:59;;;;;;;;;;;;;;;1.44;100.00;100678.84;5111628;28;19931;-75
2021/01/19 03:32:25;;;;;;;;;;;;;;;1.43;100.00;100679.75;5111893;28;19928;-75
2021/01/19 03:34:51;;;;;;;;;;;;;;;1.41;100.00;100676.25;5111636;28;20030;-75
2021/01/19 03:37:16;;;;;;;;;;;;;;;1.39;100.00;100678.16;5111515;28;19924;-75
2021/01/19 03:39:42;;;;;;;;;;;;;;;1.40;100.00;100679.00;5111333;28;19924;-75
2021/01/19 03:42:09;;;;;;;;;;;;;;;1.39;100.00;100670.13;5111714;28;19924;-75
2021/01/19 03:44:35;;;;;;;;;;;;;;;1.39;100.00;100677.28;5111387;28;19928;-75
2021/01/19 03:47:00;;;;;;;;;;;;;;;1.40;100.00;100689.72;5111595;28;19924;-75
2021/01/19 03:49:26;;;;;;;;;;;;;;;1.40;100.00;100676.34;5110403;28;20288;-75
2021/01/19 03:51:52;;;;;;;;;;;;;;;1.42;100.00;100672.66;5111552;28;19932;-75
2021/01/19 03:54:18;;;;;;;;;;;;;;;1.45;100.00;100682.38;5111600;28;19977;-75
2021/01/19 03:56:43;;;;;;;;;;;;;;;1.45;100.00;100671.66;5110843;28;19924;-75
2021/01/19 03:59:10;;;;;;;;;;;;;;;1.45;100.00;100671.66;5111498;28;19924;-75
2021/01/19 04:01:39;;;;;;;;;;;;;;;1.47;100.00;100673.34;5111413;28;19962;-75
2021/01/19 04:04:04;;;;;;;;;;;;;;;1.47;100.00;100672.44;5111503;28;19976;-75
2021/01/19 04:06:31;;;;;;;;;;;;;;;1.46;100.00;100663.56;5111255;28;19924;-75
2021/01/19 04:08:57;;;;;;;;;;;;;;;1.46;100.00;100671.59;5111404;28;19928;-75
2021/01/19 04:11:22;;;;;;;;;;;;;;;1.44;100.00;100669.91;5111607;28;20274;-76
2021/01/19 04:13:48;;;;;;;;;;;;;;;1.44;100.00;100661.88;5110919;28;20018;-75
2021/01/19 04:16:16;;;;;;;;;;;;;;;1.40;100.00;100657.63;5110891;28;19969;-75
2021/01/19 04:18:42;;;;;;;;;;;;;;;1.40;100.00;100646.91;5111027;28;20014;-75
2021/01/19 04:21:07;;;;;;;;;;;;;;;1.40;100.00;100650.44;5111400;28;19968;-74
2021/01/19 04:23:33;;;;;;;;;;;;;;;1.38;100.00;100655.00;5111656;28;19947;-75
2021/01/19 04:25:59;;;;;;;;;;;;;;;1.40;100.00;100650.44;5111604;28;19935;-76
2021/01/19 04:28:25;;;;;;;;;;;;;;;1.43;100.00;100657.47;5111930;28;20412;-75
2021/01/19 04:30:50;;;;;;;;;;;;;;;1.42;100.00;100648.59;5111347;28;19927;-74
2021/01/19 04:33:17;;;;;;;;;;;;;;;1.44;100.00;100660.09;5114353;28;19924;-75
2021/01/19 04:35:43;;;;;;;;;;;;;;;1.44;100.00;100660.09;5114711;28;19963;-75
2021/01/19 04:38:09;;;;;;;;;;;;;;;1.43;100.00;100663.72;5115003;28;19931;-75
2021/01/19 04:40:35;;;;;;;;;;;;;;;1.44;100.00;100662.78;5114966;28;20335;-75
2021/01/19 04:43:01;;;;;;;;;;;;;;;1.44;100.00;100660.09;5114989;28;20429;-75
2021/01/19 04:45:27;;;;;;;;;;;;;;;1.43;100.00;100657.47;5114725;28;20389;-75
2021/01/19 04:47:54;;;;;;;;;;;;;;;1.46;100.00;100647.50;5114139;28;19924;-74
2021/01/19 04:50:20;;;;;;;;;;;;;;;1.46;100.00;100643.97;5114715;28;19962;-75
2021/01/19 04:52:46;;;;;;;;;;;;;;;1.48;100.00;100645.66;5114432;28;20702;-75
2021/01/19 04:55:15;;;;;;;;;;;;;;;1.49;100.00;100639.34;5114375;28;20015;-75
2021/01/19 04:57:41;;;;;;;;;;;;;;;1.52;100.00;100634.81;5114286;28;20305;-75
2021/01/19 05:00:08;;;;;;;;;;;;;;;1.52;100.00;100638.34;5114522;28;20362;-75
2021/01/19 05:02:35;;;;;;;;;;;;;;;1.54;100.00;100648.97;5114185;28;19967;-75
2021/01/19 05:05:20;;;;;;;;;;;;;;;1.54;100.00;100635.59;5114212;28;20018;-75
2021/01/19 05:08:01;;;;;;;;;;;;;;;1.54;100.00;100640.94;5114075;28;20298;-75
2021/01/19 05:10:33;;;;;;;;;;;;;;;1.53;100.00;100642.75;5114233;28;19931;-75
2021/01/19 05:13:01;;;;;;;;;;;;;;;1.53;100.00;100639.22;5114200;28;19924;-75
2021/01/19 05:15:28;;;;;;;;;;;;;;;1.52;100.00;100632.97;5113976;28;19970;-75
2021/01/19 05:17:56;;;;;;;;;;;;;;;1.52;100.00;100624.09;5113926;28;20365;-75
2021/01/19 05:20:30;;;;;;;;;;;;;;;1.52;100.00;100613.41;5114246;28;20549;-75
2021/01/19 05:22:57;;;;;;;;;;;;;;;1.54;100.00;100601.69;5113925;28;20392;-75
2021/01/19 05:25:23;;;;;;;;;;;;;;;1.54;100.00;100590.09;5113756;28;20379;-75
2021/01/19 05:27:50;;;;;;;;;;;;;;;1.52;100.00;100584.81;5110695;28;19923;-75
2021/01/19 05:30:17;;;;;;;;;;;;;;;1.50;100.00;100584.03;5100018;28;19975;-74
2021/01/19 05:32:43;;;;;;;;;;;;;;;1.49;100.00;100579.63;5113039;28;19963;-74
2021/01/19 05:35:16;;;;;;;;;;;;;;;1.49;100.00;100584.97;5111163;28;19951;-73
2021/01/19 05:37:43;;;;;;;;;;;;;;;1.50;100.00;100581.38;5106560;28;20384;-73
2021/01/19 05:40:10;;;;;;;;;;;;;;;1.52;100.00;100584.81;5104771;28;19969;-73
2021/01/19 05:42:36;;;;;;;;;;;;;;;1.49;100.00;100580.47;5105985;28;20388;-73
2021/01/19 05:45:05;;;;;;;;;;;;;;;1.49;100.00;100588.50;5093595;28;19975;-74
2021/01/19 05:47:31;;;;;;;;;;;;;;;1.48;100.00;100586.78;5092899;28;19960;-74
2021/01/19 05:49:59;;;;;;;;;;;;;;;1.48;100.00;100592.16;5094117;28;20389;-73
2021/01/19 05:52:29;;;;;;;;;;;;;;;1.47;100.00;100582.38;5104184;28;19970;-74
2021/01/19 05:54:56;;;;;;;;;;;;;;;1.47;100.00;100585.06;5097435;28;19928;-74
2021/01/19 05:57:23;;;;;;;;;;;;;;;1.43;100.00;100571.88;5108011;28;20069;-74
2021/01/19 05:59:52;;;;;;;;;;;;;;;1.40;100.00;100578.22;5113120;28;19962;-74
2021/01/19 06:02:18;;;;;;;;;;;;;;;1.41;100.00;100574.63;5113253;28;19931;-73
2021/01/19 06:04:45;;;;;;;;;;;;;;;1.41;100.00;100573.75;5112887;28;19963;-73
2021/01/19 06:07:11;;;;;;;;;;;;;;;1.41;100.00;100568.41;5112849;28;19931;-74
2021/01/19 06:09:39;;;;;;;;;;;;;;;1.41;100.00;100569.25;5113146;28;19928;-74
2021/01/19 06:12:05;;;;;;;;;;;;;;;1.38;100.00;100565.84;5111831;28;19930;-74
2021/01/19 06:14:32;;;;;;;;;;;;;;;1.37;100.00;100567.66;5112910;28;19977;-74
2021/01/19 06:17:05;;;;;;;;;;;;;;;1.38;100.00;100563.19;5112275;28;19955;-73
2021/01/19 06:19:31;;;;;;;;;;;;;;;1.36;100.00;100560.56;5112863;28;19966;-74
2021/01/19 06:21:57;;;;;;;;;;;;;;;1.38;100.00;100557.81;5110087;28;19924;-73
2021/01/19 06:24:36;;;;;;;;;;;;;;;1.37;100.00;100551.63;5111542;28;20015;-73
2021/01/19 06:27:03;;;;;;;;;;;;;;;1.37;100.00;100550.75;5105164;28;20424;-73
2021/01/19 06:29:28;;;;;;;;;;;;;;;1.38;100.00;100545.34;5094489;28;19923;-73
2021/01/19 06:31:58;;;;;;;;;;;;;;;1.39;100.00;100544.41;5098816;28;19970;-74
2021/01/19 06:34:25;;;;;;;;;;;;;;;1.39;100.00;100532.81;5112028;28;19955;-74
2021/01/19 06:36:51;;;;;;;;;;;;;;;1.39;100.00;100527.47;5098080;28;20031;-74
2021/01/19 06:39:22;;;;;;;;;;;;;;;1.39;100.00;100519.44;5098068;28;19932;-74
2021/01/19 06:41:50;;;;;;;;;;;;;;;1.35;100.00;100513.41;5111442;28;19959;-74
2021/01/19 06:44:21;;;;;;;;;;;;;;;1.33;100.00;100512.59;5103060;27;19956;-73
2021/01/19 06:46:49;;;;;;;;;;;;;;;1.31;100.00;100514.44;5109703;28;20173;-73
2021/01/19 06:49:16;;;;;;;;;;;;;;;1.27;100.00;100510.19;5104306;28;20051;-73
2021/01/19 06:51:48;;;;;;;;;;;;;;;1.25;100.00;100510.25;5104019;28;20018;-74
2021/01/19 06:54:16;;;;;;;;;;;;;;;1.21;100.00;100486.41;5111561;28;20362;-74
2021/01/19 06:56:51;;;;;;;;;;;;;;;1.19;100.00;100490.94;5110647;28;20026;-74
2021/01/19 06:59:27;;;;;;;;;;;;;;;1.16;100.00;100484.81;5111882;28;20026;-74
2021/01/19 07:01:57;;;;;;;;;;;;;;;1.14;100.00;100483.16;5105079;28;20374;-73
2021/01/19 07:04:24;;;;;;;;;;;;;;;1.14;100.00;100485.81;5103900;28;20026;-74
2021/01/19 07:07:14;;;;;;;;;;;;;;;1.14;100.00;100477.81;5108513;28;19978;-74
2021/01/19 07:09:57;;;;;;;;;;;;;;;1.14;100.00;100478.66;5095889;28;19984;-74
2021/01/19 07:12:24;;;;;;;;;;;;;;;1.12;100.00;100483.22;5094718;28;20022;-74
2021/01/19 07:14:58;;;;;;;;;;;;;;;1.10;100.00;100477.06;5111104;28;20014;-74
2021/01/19 07:17:34;;;;;;;;;;;;;;;1.09;100.00;100471.78;5103156;28;19924;-74
2021/01/19 07:20:01;;;;;;;;;;;;;;;1.03;100.00;100472.94;5099471;28;19935;-74
2021/01/19 07:22:44;;;;;;;;;;;;;;;1.02;100.00;100473.00;5111404;28;19974;-74
2021/01/19 07:25:10;;;;;;;;;;;;;;;1.02;100.00;100471.22;5110691;28;20396;-74
2021/01/19 07:27:36;;;;;;;;;;;;;;;1.01;100.00;100474.81;5093850;28;19974;-75
2021/01/19 07:30:04;;;;;;;;;;;;;;;1.07;100.00;100474.53;5100989;28;19959;-75
2021/01/19 07:32:31;;;;;;;;;;;;;;;1.11;100.00;100468.13;5111400;28;20312;-75
2021/01/19 07:34:58;;;;;;;;;;;;;;;1.16;100.00;100462.53;5095469;28;20035;-75
2021/01/19 07:37:29;;;;;;;;;;;;;;;1.17;100.00;100465.13;5102101;28;20399;-75
2021/01/19 07:39:55;;;;;;;;;;;;;;;1.20;100.00;100473.97;5111369;28;19932;-76
2021/01/19 07:42:21;;;;;;;;;;;;;;;1.20;100.00;100458.78;5110595;28;19947;-75
2021/01/19 07:44:54;;;;;;;;;;;;;;;1.22;100.00;100461.41;5105212;28;19947;-75
2021/01/19 07:47:20;;;;;;;;;;;;;;;1.22;100.00;100450.72;5097975;28;19966;-75
2021/01/19 07:49:46;;;;;;;;;;;;;;;1.24;100.00;100452.34;5101791;28;19928;-75
2021/01/19 07:52:13;;;;;;;;;;;;;;;1.29;100.00;100441.44;5111310;28;19928;-75
2021/01/19 07:54:40;;;;;;;;;;;;;;;1.32;100.00;100441.31;5110400;28;19969;-75
2021/01/19 07:57:10;;;;;;;;;;;;;;;1.34;100.00;100436.75;5111219;28;19928;-76
2021/01/19 07:59:35;;;;;;;;;;;;;;;1.35;100.00;100430.47;5102454;28;19924;-75
2021/01/19 08:02:01;;;;;;;;;;;;;;;1.38;100.00;100432.09;5098996;28;19924;-76
2021/01/19 08:04:28;;;;;;;;;;;;;;;1.39;100.00;100429.38;5109925;28;19953;-76
2021/01/19 08:06:54;;;;;;;;;;;;;;;1.41;100.00;100427.50;5110783;28;20014;-76
2021/01/19 08:09:20;;;;;;;;;;;;;;;1.43;100.00;100422.94;5115240;28;19924;-76
2021/01/19 08:11:47;;;;;;;;;;;;;;;1.46;100.00;100419.25;5098834;28;20019;-75
2021/01/19 08:14:13;;;;;;;;;;;;;;;1.47;100.00;100418.28;5114955;28;20449;-73
2021/01/19 08:16:42;;;;;;;;;;;;;;;1.47;100.00;100407.59;5098335;28;20019;-75
2021/01/19 08:19:08;;;;;;;;;;;;;;;1.48;100.00;100409.34;5112181;28;19970;-74
2021/01/19 08:21:36;;;;;;;;;;;;;;;1.46;100.00;100404.06;5111333;28;20278;-75
2021/01/19 08:24:06;;;;;;;;;;;;;;;1.47;100.00;100403.13;5104362;28;19959;-77
2021/01/19 08:26:32;;;;;;;;;;;;;;;1.47;100.00;100395.09;5104929;28;19963;-76
2021/01/19 08:28:59;;;;;;;;;;;;;;;1.47;100.00;100392.44;5111499;28;19928;-77
2021/01/19 08:31:27;;;;;;;;;;;;;;;1.46;100.00;100389.84;5114884;28;20049;-76
2021/01/19 08:33:54;;;;;;;;;;;;;;;1.48;100.00;100383.47;5105569;28;20031;-76
2021/01/19 08:36:20;;;;;;;;;;;;;;;1.49;100.00;100379.81;5094009;28;19964;-76
2021/01/19 08:38:47;;;;;;;;;;;;;;;1.53;100.00;100372.53;5108233;28;19930;-75
2021/01/19 08:41:16;;;;;;;;;;;;;;;1.53;100.00;100364.50;5114244;28;20297;-74
2021/01/19 08:43:50;;;;;;;;;;;;;;;1.55;100.00;100362.63;5109579;28;19945;-75
2021/01/19 08:46:16;;;;;;;;;;;;;;;1.61;100.00;100366.81;5093912;28;20022;-76
2021/01/19 08:48:42;;;;;;;;;;;;;;;1.62;100.00;100358.69;5100751;28;20018;-76
2021/01/19 08:51:18;;;;;;;;;;;;;;;1.63;100.00;100351.53;5110830;28;19984;-75
2021/01/19 08:53:44;;;;;;;;;;;;;;;1.65;100.00;100352.31;5102716;28;19967;-76
2021/01/19 08:56:15;;;;;;;;;;;;;;;1.69;100.00;100347.69;5113830;28;20433;-75
2021/01/19 08:58:41;;;;;;;;;;;;;;;1.75;100.00;100344.69;5097291;28;20398;-75
2021/01/19 09:01:07;;;;;;;;;;;;;;;1.77;100.00;100346.34;5093791;28;19959;-75
2021/01/19 09:03:34;;;;;;;;;;;;;;;1.78;100.00;100340.06;5109637;28;19931;-75
2021/01/19 09:06:00;;;;;;;;;;;;;;;1.81;100.00;100334.53;5113207;28;20457;-73
2021/01/19 09:08:28;;;;;;;;;;;;;;;1.84;100.00;100322.81;5107228;28;20370;-74
2021/01/19 09:11:00;;;;;;;;;;;;;;;1.86;100.00;100325.41;5107499;28;19977;-73
2021/01/19 09:13:26;;;;;;;;;;;;;;;1.86;100.00;100320.06;5105929;28;20027;-73
2021/01/19 09:15:52;;;;;;;;;;;;;;;1.88;100.00;100310.16;5098920;28;20027;-74
2021/01/19 09:18:18;;;;;;;;;;;;;;;1.89;100.00;100318.09;5098139;28;20057;-75
2021/01/19 09:20:45;;;;;;;;;;;;;;;1.93;100.00;100310.78;5094130;28;19976;-75
2021/01/19 09:23:15;;;;;;;;;;;;;;;1.96;100.00;100302.56;5102253;28;19931;-75
2021/01/19 09:25:41;;;;;;;;;;;;;;;1.98;100.00;100296.19;5095904;28;19924;-75
2021/01/19 09:28:07;;;;;;;;;;;;;;;2.00;100.00;100288.09;5105814;28;20017;-75
2021/01/19 09:30:35;;;;;;;;;;;;;;;2.04;100.00;100294.16;5093365;28;20297;-75
2021/01/19 09:33:01;;;;;;;;;;;;;;;2.06;100.00;100289.56;5094318;28;19962;-74
2021/01/19 09:35:27;;;;;;;;;;;;;;;2.05;100.00;100286.03;5092769;28;19964;-75
2021/01/19 09:37:54;;;;;;;;;;;;;;;2.08;100.00;100269.78;5101264;28;19938;-74
2021/01/19 09:40:28;;;;;;;;;;;;;;;2.11;100.00;100272.34;5113370;28;20364;-74
2021/01/19 09:42:54;;;;;;;;;;;;;;;2.15;100.00;100273.00;5109714;28;20036;-74
2021/01/19 09:45:20;;;;;;;;;;;;;;;2.17;100.00;100263.94;5110916;28;19924;-75
2021/01/19 09:47:46;;;;;;;;;;;;;;;2.16;100.00;100266.72;5111178;28;19970;-75
2021/01/19 09:50:12;;;;;;;;;;;;;;;2.13;100.00;100262.38;5099668;28;19977;-75
2021/01/19 09:52:43;;;;;;;;;;;;;;;2.12;100.00;100257.13;5101393;28;19924;-75
2021/01/19 09:55:11;;;;;;;;;;;;;;;2.09;100.00;100244.75;5110609;28;19962;-75
2021/01/19 09:57:37;;;;;;;;;;;;;;;2.04;100.00;100252.16;5112075;28;20032;-74
2021/01/19 10:00:04;;;;;;;;;;;;;;;2.03;100.00;100236.19;5113033;28;19932;-74
2021/01/19 10:02:38;;;;;;;;;;;;;;;1.99;100.00;100227.44;5097053;28;19923;-75
2021/01/19 10:05:05;;;;;;;;;;;;;;;1.98;100.00;100221.22;5112715;28;20331;-74
2021/01/19 10:07:31;;;;;;;;;;;;;;;1.99;100.00;100208.69;5101353;27;19990;-75
2021/01/19 10:10:06;;;;;;;;;;;;;;;1.99;100.00;100192.63;5096593;28;20043;-75
2021/01/19 10:12:33;;;;;;;;;;;;;;;1.96;100.00;100196.34;5112508;28;19978;-75
2021/01/19 10:14:59;;;;;;;;;;;;;;;1.96;100.00;100192.81;5105426;28;19993;-76
2021/01/19 10:17:28;;;;;;;;;;;;;;;1.95;100.00;100173.22;5098131;28;19967;-74
2021/01/19 10:20:04;;;;;;;;;;;;;;;1.95;100.00;100164.31;5111794;27;19976;-75
2021/01/19 10:22:30;;;;;;;;;;;;;;;1.98;100.00;100161.47;5112593;28;19928;-76
2021/01/19 10:24:55;;;;;;;;;;;;;;;1.99;100.00;100155.16;5093018;28;19928;-75
2021/01/19 10:27:22;;;;;;;;;;;;;;;2.01;100.00;100153.28;5106037;28;19924;-76
2021/01/19 10:29:50;;;;;;;;;;;;;;;2.01;100.00;100147.91;5091647;28;20010;-76
2021/01/19 10:32:16;;;;;;;;;;;;;;;1.98;100.00;100132.88;5110403;28;19956;-75
2021/01/19 10:34:43;;;;;;;;;;;;;;;2.00;100.00;100130.13;5100151;28;20301;-75
2021/01/19 10:37:10;;;;;;;;;;;;;;;1.99;100.00;100126.59;5106913;28;20015;-75
2021/01/19 10:39:45;;;;;;;;;;;;;;;1.96;100.00;100116.03;5111910;28;19955;-75
2021/01/19 10:42:11;;;;;;;;;;;;;;;1.98;100.00;100102.59;5106971;28;19970;-75
2021/01/19 10:44:39;;;;;;;;;;;;;;;2.00;100.00;100085.50;5110707;28;19924;-75
2021/01/19 10:47:05;;;;;;;;;;;;;;;2.00;100.00;100088.16;5103578;28;19924;-75
2021/01/19 10:49:32;;;;;;;;;;;;;;;2.01;100.00;100072.94;5111119;28;20022;-75
2021/01/19 10:51:59;;;;;;;;;;;;;;;2.03;100.00;100070.19;5112019;28;20008;-75
2021/01/19 10:54:25;;;;;;;;;;;;;;;2.01;100.00;100057.75;5103688;28;19931;-75
2021/01/19 10:57:00;;;;;;;;;;;;;;;2.02;100.00;100063.97;5099996;28;20026;-75
2021/01/19 10:59:26;;;;;;;;;;;;;;;2.01;100.00;100055.06;5104209;28;20352;-75
2021/01/19 11:01:52;;;;;;;;;;;;;;;2.04;100.00;100054.03;5095017;28;19928;-75
2021/01/19 11:04:20;;;;;;;;;;;;;;;2.09;100.00;100057.31;5111259;28;19924;-75
2021/01/19 11:06:46;;;;;;;;;;;;;;;2.09;100.00;100035.03;5094577;28;19950;-76
2021/01/19 11:09:12;;;;;;;;;;;;;;;2.08;100.00;100039.50;5091392;28;20517;-75
2021/01/19 11:11:38;;;;;;;;;;;;;;;2.11;100.00;100028.66;5105334;28;19935;-75
2021/01/19 11:14:05;;;;;;;;;;;;;;;2.12;100.00;100027.69;5099377;28;19931;-75
2021/01/19 11:16:31;;;;;;;;;;;;;;;2.09;100.00;100030.53;5091237;28;20031;-76
2021/01/19 11:19:01;;;;;;;;;;;;;;;2.02;100.00;100029.19;5100054;28;19993;-75
2021/01/19 11:21:27;;;;;;;;;;;;;;;1.95;100.00;100022.41;5111047;28;19959;-75
2021/01/19 11:23:54;;;;;;;;;;;;;;;1.89;100.00;100020.97;5111083;28;20389;-75
2021/01/19 11:26:20;;;;;;;;;;;;;;;1.82;100.00;100023.13;5110573;28;20343;-74
2021/01/19 11:28:46;;;;;;;;;;;;;;;1.78;100.00;100020.72;5105672;28;19931;-73
2021/01/19 11:31:12;;;;;;;;;;;;;;;1.72;100.00;100019.22;5111637;28;19931;-73
2021/01/19 11:33:37;;;;;;;;;;;;;;;1.64;100.00;100018.78;5110464;28;19931;-74
2021/01/19 11:36:04;;;;;;;;;;;;;;;1.58;100.00;100013.81;5111352;28;19924;-75
2021/01/19 11:38:30;;;;;;;;;;;;;;;1.52;100.00;100008.78;5108574;28;19931;-73
2021/01/19 11:40:56;;;;;;;;;;;;;;;1.44;100.00;100010.06;5091204;28;20020;-73
2021/01/19 11:43:22;;;;;;;;;;;;;;;1.36;100.00;99996.22;5096473;28;19932;-73
2021/01/19 11:45:48;;;;;;;;;;;;;;;1.23;100.00;99998.72;5114722;28;20373;-73
2021/01/19 11:48:14;;;;;;;;;;;;;;;1.17;100.00;99999.03;5113960;28;19960;-72
2021/01/19 11:50:39;;;;;;;;;;;;;;;1.07;100.00;99988.00;5106455;28;19970;-73
2021/01/19 11:53:05;;;;;;;;;;;;;;;1.00;100.00;99983.91;5106219;28;20313;-73
2021/01/19 11:55:32;;;;;;;;;;;;;;;0.94;100.00;99974.41;5113717;28;19923;-72
2021/01/19 11:57:57;;;;;;;;;;;;;;;0.85;100.00;99961.53;5115300;28;20444;-71
2021/01/19 12:00:23;;;;;;;;;;;;;;;0.74;100.00;99954.09;5111595;28;19930;-74
2021/01/19 12:02:49;;;;;;;;;;;;;;;0.71;100.00;99956.94;5101603;28;19931;-74
2021/01/19 12:05:15;;;;;;;;;;;;;;;0.58;100.00;99953.16;5094614;28;19924;-74
2021/01/19 12:07:41;;;;;;;;;;;;;;;0.48;100.00;99942.97;5108511;28;20367;-74
2021/01/19 12:10:07;;;;;;;;;;;;;;;0.40;100.00;99939.84;5115170;28;20393;-73
2021/01/19 12:12:35;;;;;;;;;;;;;;;0.29;100.00;99937.69;5101101;28;19969;-74
2021/01/19 12:15:00;;;;;;;;;;;;;;;0.18;100.00;99928.53;5095403;28;20495;-72
2021/01/19 12:17:26;;;;;;;;;;;;;;;0.02;100.00;99923.09;5106893;28;19928;-73
2021/01/19 12:19:52;;;;;;;;;;;;;;;-0.07;100.00;99914.59;5114947;28;20020;-73
2021/01/19 12:22:18;;;;;;;;;;;;;;;-0.15;100.00;99905.25;5113610;28;19924;-73
2021/01/19 12:24:44;;;;;;;;;;;;;;;-0.23;100.00;99895.84;5114857;28;20393;-73
2021/01/19 12:27:09;;;;;;;;;;;;;;;-0.30;100.00;99899.72;5113961;28;19924;-73
2021/01/19 12:29:36;;;;;;;;;;;;;;;-0.36;100.00;99897.34;5114801;28;19924;-73
2021/01/19 12:32:04;;;;;;;;;;;;;;;-0.41;100.00;99888.75;5105023;28;20458;-73
2021/01/19 12:34:30;;;;;;;;;;;;;;;-0.45;100.00;99896.03;5111977;28;19932;-73
2021/01/19 12:36:55;;;;;;;;;;;;;;;-0.49;100.00;99882.91;5106071;28;19928;-71
2021/01/19 12:39:21;;;;;;;;;;;;;;;-0.52;100.00;99887.47;5104488;28;19935;-72